LFMP/PGF METAR and TAF weather

Enter ICAO airport designator
Station Type Date Time Source
LFMP METAR 2020/04/10 17:30 UTC NOAA

LFMP 101730Z AUTO VRB02KT CAVOK 17/10 Q1021


Station Type Date Time Source
LFMP Decoded METAR 2020/04/10 17:30 UTC NOAA

Perpignan, France (LFMP) 42-44N 002-52E 48M
Apr 10, 2020 - 01:30 PM EDT / 2020.04.10 1730 UTC
Wind: Variable at 2 MPH (2 KT):0
Visibility: greater than 7 mile(s):0
Temperature: 62 F (17 C)
Dew Point: 50 F (10 C)
Relative Humidity: 63%
Pressure (altimeter): 30.15 in. Hg (1021 hPa)
ob: LFMP 101730Z AUTO VRB02KT CAVOK 17/10 Q1021
cycle: 17

Station Type Date Time Source
LFMP TAF 2020/03/24 09:21 UTC NOAA

TAF TAF LFMP 240800Z 2409/2509 13008KT 9999 SCT030 BKN045
TEMPO 2420/2424 -RA FEW030TCU
BECMG 2500/2502 VRB02KT CAVOK

Example: see airport list